createdAt,value
2022-08-12T00:01:03.868Z,21.30
2022-08-12T00:03:50.969Z,21.30
2022-08-12T00:06:39.844Z,21.30
2022-08-12T00:09:27.028Z,21.20
2022-08-12T00:12:13.288Z,21.20
2022-08-12T00:15:01.036Z,21.20
2022-08-12T00:17:47.213Z,21.10
2022-08-12T00:20:33.355Z,21.10
2022-08-12T00:23:19.451Z,21.10
2022-08-12T00:26:23.576Z,21.10
2022-08-12T00:29:13.362Z,21.00
2022-08-12T00:32:01.255Z,21.00
2022-08-12T00:34:49.205Z,20.90
2022-08-12T00:37:39.991Z,20.90
2022-08-12T00:40:28.058Z,20.90
2022-08-12T00:42:57.088Z,20.80
2022-08-12T00:45:24.532Z,20.80
2022-08-12T00:47:53.532Z,20.80
2022-08-12T00:50:22.504Z,20.70
2022-08-12T00:52:51.613Z,20.70
2022-08-12T00:55:20.036Z,20.70
2022-08-12T00:57:49.562Z,20.70
2022-08-12T01:00:22.612Z,20.70
2022-08-12T01:02:57.482Z,20.60
2022-08-12T01:05:46.149Z,20.60
2022-08-12T01:08:32.025Z,20.60
2022-08-12T01:11:17.769Z,20.50
2022-08-12T01:13:49.416Z,20.50
2022-08-12T01:16:22.856Z,20.50
2022-08-12T01:18:52.687Z,20.50
2022-08-12T01:21:28.500Z,20.40
2022-08-12T01:24:30.195Z,20.40
2022-08-12T01:26:59.591Z,20.40
2022-08-12T01:29:33.031Z,20.40
2022-08-12T01:32:06.204Z,20.40
2022-08-12T01:34:38.669Z,20.40
2022-08-12T01:37:08.845Z,20.40
2022-08-12T01:40:33.832Z,20.40
2022-08-12T01:42:34.114Z,20.30
2022-08-12T01:45:03.053Z,20.30
2022-08-12T01:47:43.166Z,20.30
2022-08-12T01:50:26.537Z,20.30
2022-08-12T01:52:58.090Z,20.30
2022-08-12T01:55:34.473Z,20.30
2022-08-12T01:58:20.105Z,20.20
2022-08-12T02:00:58.520Z,20.20
2022-08-12T02:03:53.065Z,20.20
2022-08-12T02:06:55.291Z,20.10
2022-08-12T02:09:56.817Z,20.10
2022-08-12T02:12:47.793Z,20.10
2022-08-12T02:15:32.066Z,20.00
2022-08-12T02:18:20.063Z,20.00
2022-08-12T02:21:01.617Z,20.00
2022-08-12T02:23:29.337Z,20.00
2022-08-12T02:26:01.208Z,20.00
2022-08-12T02:28:28.988Z,20.00
2022-08-12T02:30:57.421Z,19.90
2022-08-12T02:33:25.487Z,19.90
2022-08-12T02:35:52.942Z,19.90
2022-08-12T02:38:21.716Z,19.90
2022-08-12T02:40:52.704Z,19.90
2022-08-12T02:43:35.760Z,19.80
2022-08-12T02:46:10.480Z,19.80
2022-08-12T02:49:00.848Z,19.80
2022-08-12T02:51:34.251Z,19.80
2022-08-12T02:54:05.399Z,19.80
2022-08-12T02:56:40.566Z,19.70
2022-08-12T02:59:14.358Z,19.70
2022-08-12T03:01:50.021Z,19.70
2022-08-12T03:04:43.991Z,19.70
2022-08-12T03:07:49.363Z,19.70
2022-08-12T03:10:18.131Z,19.60
2022-08-12T03:13:04.123Z,19.60
2022-08-12T03:15:31.273Z,19.60
2022-08-12T03:18:25.675Z,19.60
2022-08-12T03:20:56.401Z,19.60
2022-08-12T03:23:29.593Z,19.50
2022-08-12T03:26:03.217Z,19.50
2022-08-12T03:28:50.931Z,19.50
2022-08-12T03:31:29.789Z,19.50
2022-08-12T03:34:23.512Z,19.50
2022-08-12T03:36:55.431Z,19.50
2022-08-12T03:39:40.763Z,19.40
2022-08-12T03:42:41.071Z,19.40
2022-08-12T03:45:35.883Z,19.50
2022-08-12T03:48:37.475Z,19.40
2022-08-12T03:51:23.572Z,19.40
2022-08-12T03:54:11.349Z,19.40
2022-08-12T03:56:58.587Z,19.40
2022-08-12T03:59:44.338Z,19.40
2022-08-12T04:02:15.691Z,19.40
2022-08-12T04:04:45.331Z,19.40
2022-08-12T04:07:13.551Z,19.40
2022-08-12T04:09:42.912Z,19.30
2022-08-12T04:12:29.918Z,19.30
2022-08-12T04:15:00.847Z,19.40
2022-08-12T04:17:28.589Z,19.30
2022-08-12T04:19:57.831Z,19.30
2022-08-12T04:22:30.625Z,19.30
2022-08-12T04:25:01.250Z,19.30
2022-08-12T04:27:31.477Z,19.20
2022-08-12T04:30:31.932Z,19.30
2022-08-12T04:32:48.202Z,19.20
2022-08-12T04:35:16.185Z,19.30
2022-08-12T04:37:57.999Z,19.30
2022-08-12T04:40:30.425Z,19.20
2022-08-12T04:42:57.778Z,19.20
2022-08-12T04:45:25.062Z,19.30
2022-08-12T04:47:52.855Z,19.20
2022-08-12T04:50:35.117Z,19.20
2022-08-12T04:53:08.137Z,19.30
2022-08-12T04:55:38.356Z,19.30
2022-08-12T04:58:06.451Z,19.30
2022-08-12T05:00:34.008Z,19.30
2022-08-12T05:03:01.007Z,19.30
2022-08-12T05:05:35.178Z,19.30
2022-08-12T05:08:03.731Z,19.30
2022-08-12T05:10:33.758Z,19.40
2022-08-12T05:13:05.440Z,19.50
2022-08-12T05:15:32.327Z,19.60
2022-08-12T05:18:00.240Z,19.70
2022-08-12T05:20:29.739Z,19.80
2022-08-12T05:23:13.477Z,19.90
2022-08-12T05:25:50.093Z,20.00
2022-08-12T05:28:18.258Z,20.10
2022-08-12T05:30:46.353Z,20.20
2022-08-12T05:33:15.574Z,20.30
2022-08-12T05:35:44.455Z,20.40
2022-08-12T05:38:32.753Z,20.50
2022-08-12T05:41:01.319Z,20.60
2022-08-12T05:43:28.835Z,20.70
2022-08-12T05:45:55.911Z,20.90
2022-08-12T05:48:23.455Z,21.00
2022-08-12T05:50:50.517Z,21.10
2022-08-12T05:53:17.367Z,21.30
2022-08-12T05:55:44.171Z,21.40
2022-08-12T05:58:11.123Z,21.50
2022-08-12T06:00:38.039Z,21.60
2022-08-12T06:03:06.850Z,21.70
2022-08-12T06:05:51.904Z,21.80
2022-08-12T06:08:25.514Z,21.90
2022-08-12T06:10:52.742Z,22.10
2022-08-12T06:13:25.734Z,22.20
2022-08-12T06:15:55.964Z,22.30
2022-08-12T06:18:27.876Z,22.40
2022-08-12T06:21:00.247Z,22.60
2022-08-12T06:23:29.510Z,22.70
2022-08-12T06:25:56.717Z,22.80
2022-08-12T06:28:24.360Z,22.90
2022-08-12T06:31:15.259Z,23.10
2022-08-12T06:33:59.580Z,23.20
2022-08-12T06:36:33.735Z,23.40
2022-08-12T06:39:01.077Z,23.50
2022-08-12T06:42:02.766Z,23.60
2022-08-12T06:44:33.582Z,23.80
2022-08-12T06:47:00.862Z,23.90
2022-08-12T06:49:35.691Z,24.00
2022-08-12T06:52:04.593Z,24.10
2022-08-12T06:54:33.305Z,24.10
2022-08-12T06:57:14.336Z,24.30
2022-08-12T06:59:47.837Z,24.30
2022-08-12T07:02:15.124Z,24.60
2022-08-12T07:04:42.141Z,24.50
2022-08-12T07:07:10.731Z,24.60
2022-08-12T07:10:06.908Z,24.70
2022-08-12T07:12:29.562Z,24.80
2022-08-12T07:14:58.362Z,24.90
2022-08-12T07:17:35.845Z,24.90
2022-08-12T07:20:06.788Z,25.00
2022-08-12T07:22:34.110Z,25.20
2022-08-12T07:25:19.818Z,25.30
2022-08-12T07:27:46.769Z,25.30
2022-08-12T07:30:14.498Z,25.40
2022-08-12T07:32:41.519Z,25.60
2022-08-12T07:35:08.807Z,25.80
2022-08-12T07:37:51.691Z,25.90
2022-08-12T07:40:21.107Z,26.10
2022-08-12T07:42:48.207Z,26.30
2022-08-12T07:45:15.752Z,26.40
2022-08-12T07:47:45.454Z,26.60
2022-08-12T07:50:21.556Z,26.70
2022-08-12T07:52:52.083Z,26.90
2022-08-12T07:55:19.159Z,27.10
2022-08-12T07:57:52.407Z,27.20
2022-08-12T08:00:19.966Z,27.30
2022-08-12T08:02:46.992Z,27.40
2022-08-12T08:05:16.131Z,27.60
2022-08-12T08:07:42.899Z,27.80
2022-08-12T08:10:11.564Z,27.90
2022-08-12T08:12:53.647Z,28.10
2022-08-12T08:16:00.799Z,28.30
2022-08-12T08:18:26.863Z,28.40
2022-08-12T08:20:55.967Z,28.60
2022-08-12T08:23:29.261Z,28.70
2022-08-12T08:26:02.152Z,28.80
2022-08-12T08:28:29.298Z,29.00
2022-08-12T08:30:56.159Z,29.00
2022-08-12T08:34:09.571Z,29.10
2022-08-12T08:36:16.326Z,29.20
2022-08-12T08:38:53.327Z,29.40
2022-08-12T08:42:14.031Z,29.50
2022-08-12T08:44:38.351Z,29.60
2022-08-12T08:47:11.720Z,29.80
2022-08-12T08:49:40.021Z,30.00
2022-08-12T08:52:08.665Z,30.10
2022-08-12T08:54:37.712Z,30.10
2022-08-12T08:57:08.114Z,30.10
2022-08-12T08:59:35.490Z,30.10
2022-08-12T09:02:02.749Z,30.30
2022-08-12T09:05:11.820Z,30.40
2022-08-12T09:13:23.408Z,30.50
2022-08-12T09:15:57.683Z,30.70
2022-08-12T09:18:33.195Z,30.80
2022-08-12T09:21:02.063Z,30.90
2022-08-12T09:23:58.791Z,30.90
2022-08-12T09:26:22.767Z,31.00
2022-08-12T09:28:56.327Z,31.10
2022-08-12T09:32:04.012Z,31.10
2022-08-12T09:34:26.426Z,31.20
2022-08-12T09:37:02.331Z,31.20
2022-08-12T09:40:04.295Z,31.30
2022-08-12T09:42:43.050Z,31.30
2022-08-12T09:46:06.782Z,31.50
2022-08-12T09:48:19.839Z,31.40
2022-08-12T09:50:52.140Z,31.50
2022-08-12T09:53:29.478Z,31.60
2022-08-12T09:56:58.682Z,31.70
2022-08-12T09:59:00.283Z,31.70
2022-08-12T10:01:35.573Z,31.70
2022-08-12T10:04:19.387Z,31.90
2022-08-12T10:06:55.496Z,31.80
2022-08-12T10:09:57.558Z,31.90
2022-08-12T10:12:33.247Z,32.00
2022-08-12T10:15:01.880Z,32.10
2022-08-12T10:17:29.150Z,32.20
2022-08-12T10:19:59.691Z,32.30
2022-08-12T10:22:39.436Z,32.20
2022-08-12T10:26:33.986Z,32.20
2022-08-12T10:28:33.184Z,32.20
2022-08-12T10:31:01.396Z,32.40
2022-08-12T10:33:31.946Z,32.40
2022-08-12T10:36:01.754Z,32.50
2022-08-12T10:38:36.642Z,32.60
2022-08-12T10:41:56.872Z,32.60
2022-08-12T10:44:17.065Z,32.60
2022-08-12T10:46:49.831Z,32.70
2022-08-12T10:50:03.079Z,32.80
2022-08-12T10:52:33.901Z,32.80
2022-08-12T10:54:55.798Z,32.80
2022-08-12T10:58:13.634Z,32.90
2022-08-12T11:00:32.820Z,33.00
2022-08-12T11:04:24.690Z,33.10
2022-08-12T11:07:07.544Z,33.10
2022-08-12T11:08:42.877Z,33.10
2022-08-12T11:11:17.652Z,33.20
2022-08-12T11:13:54.619Z,33.20
2022-08-12T11:16:32.653Z,33.30
2022-08-12T11:19:02.658Z,33.30
2022-08-12T11:21:56.094Z,33.40
2022-08-12T11:24:30.738Z,33.30
2022-08-12T11:27:01.368Z,33.30
2022-08-12T11:30:01.536Z,33.30
2022-08-12T11:32:16.989Z,33.30
2022-08-12T11:34:53.341Z,33.40
2022-08-12T11:37:25.978Z,33.40
2022-08-12T11:42:46.990Z,33.50
2022-08-12T11:45:16.560Z,33.60
2022-08-12T11:47:44.483Z,33.70
2022-08-12T11:50:19.258Z,33.70
2022-08-12T11:52:55.716Z,33.70
2022-08-12T11:55:25.019Z,33.70
2022-08-12T11:58:44.055Z,33.70
2022-08-12T12:03:45.708Z,33.70
2022-08-12T12:06:17.806Z,33.70
2022-08-12T12:08:50.848Z,33.60
2022-08-12T12:11:18.575Z,33.70
2022-08-12T12:14:07.300Z,33.70
2022-08-12T12:16:33.333Z,33.70
2022-08-12T12:19:05.578Z,33.80
2022-08-12T12:21:48.022Z,33.80
2022-08-12T12:24:22.469Z,33.80
2022-08-12T12:27:00.982Z,33.80
2022-08-12T12:30:18.250Z,33.70
2022-08-12T12:32:16.680Z,33.70
2022-08-12T12:35:13.487Z,33.70
2022-08-12T12:38:03.718Z,33.70
2022-08-12T12:40:22.749Z,33.60
2022-08-12T12:43:03.097Z,33.60
2022-08-12T12:45:33.524Z,33.50
2022-08-12T12:48:04.568Z,33.40
2022-08-12T12:50:42.734Z,33.40
2022-08-12T12:54:06.637Z,33.30
2022-08-12T12:56:06.004Z,33.30
2022-08-12T12:58:33.966Z,33.30
2022-08-12T13:01:04.866Z,33.20
2022-08-12T13:03:54.165Z,33.20
2022-08-12T13:06:30.227Z,33.00
2022-08-12T13:09:03.845Z,32.90
2022-08-12T13:11:41.572Z,32.80
2022-08-12T13:14:28.151Z,32.70
2022-08-12T13:17:02.673Z,32.70
2022-08-12T13:19:43.284Z,32.60
2022-08-12T13:22:18.665Z,32.50
2022-08-12T13:24:54.607Z,32.50
2022-08-12T13:27:36.537Z,32.30
2022-08-12T13:30:28.712Z,32.30
2022-08-12T13:32:58.969Z,32.30
2022-08-12T13:36:02.943Z,32.20
2022-08-12T13:38:34.898Z,32.20
2022-08-12T13:41:03.609Z,32.10
2022-08-12T13:43:40.932Z,32.00
2022-08-12T13:46:12.300Z,32.00
2022-08-12T13:48:44.907Z,32.00
2022-08-12T13:51:12.758Z,31.80
2022-08-12T13:53:57.591Z,31.80
2022-08-12T13:56:34.552Z,31.80
2022-08-12T13:59:03.577Z,31.70
2022-08-12T14:01:31.027Z,31.60
2022-08-12T14:04:04.086Z,31.60
2022-08-12T14:06:32.178Z,31.40
2022-08-12T14:08:59.692Z,31.40
2022-08-12T14:11:28.062Z,31.30
2022-08-12T14:14:04.083Z,31.30
2022-08-12T14:16:48.437Z,31.30
2022-08-12T14:19:24.339Z,31.20
2022-08-12T14:21:59.218Z,31.20
2022-08-12T14:24:27.370Z,31.20
2022-08-12T14:27:01.834Z,31.00
2022-08-12T14:30:04.870Z,31.00
2022-08-12T14:32:37.012Z,31.00
2022-08-12T14:35:09.510Z,31.00
2022-08-12T14:37:57.062Z,30.90
2022-08-12T14:40:29.607Z,30.80
2022-08-12T14:42:58.398Z,30.80
2022-08-12T14:45:44.314Z,30.80
2022-08-12T14:48:14.850Z,30.70
2022-08-12T14:52:10.448Z,30.70
2022-08-12T14:59:24.769Z,30.60
2022-08-12T15:01:52.518Z,30.50
2022-08-12T15:04:26.129Z,30.40
2022-08-12T15:06:55.053Z,30.40
2022-08-12T15:09:29.362Z,30.40
2022-08-12T15:11:58.183Z,30.30
2022-08-12T15:14:30.712Z,30.30
2022-08-12T15:17:00.785Z,30.30
2022-08-12T15:20:31.285Z,30.20
2022-08-12T15:22:35.414Z,30.20
2022-08-12T15:25:03.769Z,30.10
2022-08-12T15:28:04.301Z,30.10
2022-08-12T15:30:24.776Z,30.10
2022-08-12T15:32:56.187Z,30.10
2022-08-12T15:35:27.410Z,30.00
2022-08-12T15:38:13.812Z,30.10
2022-08-12T15:40:46.798Z,30.00
2022-08-12T15:43:51.020Z,30.00
2022-08-12T15:46:06.278Z,30.00
2022-08-12T15:48:34.165Z,30.00
2022-08-12T15:51:02.997Z,29.90
2022-08-12T15:53:53.264Z,29.90
2022-08-12T15:56:29.667Z,29.90
2022-08-12T15:59:00.381Z,29.90
2022-08-12T16:01:35.625Z,29.80
2022-08-12T16:04:05.511Z,29.80
2022-08-12T16:07:04.319Z,29.70
2022-08-12T16:09:56.688Z,29.70
2022-08-12T16:12:11.293Z,29.70
2022-08-12T16:14:39.134Z,29.60
2022-08-12T16:17:09.072Z,29.60
2022-08-12T16:20:03.566Z,29.60
2022-08-12T16:22:29.723Z,29.60
2022-08-12T16:24:57.084Z,29.50
2022-08-12T16:27:25.630Z,29.50
2022-08-12T16:29:57.425Z,29.50
2022-08-12T16:32:31.194Z,29.40
2022-08-12T16:35:00.081Z,29.40
2022-08-12T16:38:04.741Z,29.40
2022-08-12T16:40:15.768Z,29.30
2022-08-12T16:42:53.807Z,29.30
2022-08-12T16:46:04.324Z,29.30
2022-08-12T16:48:34.636Z,29.20
2022-08-12T16:51:11.769Z,29.20
2022-08-12T16:53:43.740Z,29.20
2022-08-12T16:56:15.244Z,29.10
2022-08-12T16:58:43.404Z,29.10
2022-08-12T17:01:16.363Z,29.00
2022-08-12T17:03:52.452Z,29.00
2022-08-12T17:06:22.200Z,29.00
2022-08-12T17:08:55.498Z,28.90
2022-08-12T17:11:22.715Z,28.90
2022-08-12T17:13:53.206Z,28.80
2022-08-12T17:16:21.144Z,28.70
2022-08-12T17:18:57.746Z,28.70
2022-08-12T17:21:40.569Z,28.70
2022-08-12T17:24:22.335Z,28.70
2022-08-12T17:26:53.721Z,28.60
2022-08-12T17:29:24.201Z,28.60
2022-08-12T17:32:02.856Z,28.60
2022-08-12T17:34:51.017Z,28.60
2022-08-12T17:37:18.070Z,28.50
2022-08-12T17:40:10.829Z,28.50
2022-08-12T17:42:35.627Z,28.40
2022-08-12T17:45:17.147Z,28.40
2022-08-12T17:47:45.176Z,28.30
2022-08-12T17:50:32.441Z,28.30
2022-08-12T17:53:02.725Z,28.20
2022-08-12T17:55:44.415Z,28.20
2022-08-12T17:58:36.996Z,28.20
2022-08-12T18:01:06.283Z,28.10
2022-08-12T18:03:58.233Z,28.10
2022-08-12T18:06:28.330Z,28.00
2022-08-12T18:08:58.624Z,28.00
2022-08-12T18:12:03.650Z,27.90
2022-08-12T18:14:36.899Z,27.90
2022-08-12T18:17:08.688Z,27.80
2022-08-12T18:20:05.693Z,27.80
2022-08-12T18:22:30.316Z,27.70
2022-08-12T18:25:37.862Z,27.70
2022-08-12T18:28:11.697Z,27.60
2022-08-12T18:30:45.318Z,27.50
2022-08-12T18:33:23.809Z,27.50
2022-08-12T18:35:53.637Z,27.40
2022-08-12T18:38:24.541Z,27.30
2022-08-12T18:41:21.917Z,27.30
2022-08-12T18:44:02.351Z,27.20
2022-08-12T18:46:42.778Z,27.20
2022-08-12T18:49:19.010Z,27.10
2022-08-12T18:51:55.361Z,27.10
2022-08-12T18:54:32.281Z,27.00
2022-08-12T18:57:03.811Z,27.00
2022-08-12T19:00:00.316Z,26.90
2022-08-12T19:02:23.268Z,26.90
2022-08-12T19:04:51.517Z,26.90
2022-08-12T19:07:25.595Z,26.80
2022-08-12T19:10:13.621Z,26.70
2022-08-12T19:13:00.798Z,26.70
2022-08-12T19:15:29.984Z,26.60
2022-08-12T19:18:01.302Z,26.60
2022-08-12T19:20:30.695Z,26.50
2022-08-12T19:23:02.164Z,26.50
2022-08-12T19:26:00.156Z,26.40
2022-08-12T19:28:30.239Z,26.30
2022-08-12T19:31:56.328Z,26.20
2022-08-12T19:34:55.823Z,26.20
2022-08-12T19:37:26.893Z,26.10
2022-08-12T19:40:09.198Z,26.10
2022-08-12T19:42:57.820Z,26.00
2022-08-12T19:45:41.796Z,25.90
2022-08-12T19:48:17.227Z,25.80
2022-08-12T19:50:50.602Z,25.80
2022-08-12T19:53:22.994Z,25.70
2022-08-12T19:55:54.292Z,25.70
2022-08-12T19:58:22.486Z,25.60
2022-08-12T20:00:53.583Z,25.60
2022-08-12T20:03:39.082Z,25.50
2022-08-12T20:06:15.309Z,25.50
2022-08-12T20:08:56.474Z,25.40
2022-08-12T20:12:14.315Z,25.30
2022-08-12T20:14:19.294Z,25.30
2022-08-12T20:16:51.618Z,25.30
2022-08-12T20:19:24.291Z,25.20
2022-08-12T20:22:24.603Z,25.20
2022-08-12T20:25:01.326Z,25.10
2022-08-12T20:28:03.045Z,25.10
2022-08-12T20:30:20.569Z,25.00
2022-08-12T20:33:05.246Z,25.00
2022-08-12T20:36:06.775Z,24.90
2022-08-12T20:38:26.784Z,24.90
2022-08-12T20:40:55.829Z,24.80
2022-08-12T20:43:24.169Z,24.80
2022-08-12T20:45:57.635Z,24.70
2022-08-12T20:48:29.515Z,24.70
2022-08-12T20:51:04.186Z,24.70
2022-08-12T20:53:57.807Z,24.60
2022-08-12T20:56:31.122Z,24.60
2022-08-12T20:59:01.095Z,24.50
2022-08-12T21:01:46.094Z,24.50
2022-08-12T21:04:33.975Z,24.40
2022-08-12T21:07:04.514Z,24.40
2022-08-12T21:09:47.161Z,24.40
2022-08-12T21:12:27.653Z,24.30
2022-08-12T21:15:15.291Z,24.30
2022-08-12T21:18:09.406Z,24.30
2022-08-12T21:20:35.172Z,24.20
2022-08-12T21:23:05.643Z,24.10
2022-08-12T21:25:44.526Z,24.10
2022-08-12T21:28:15.318Z,24.10
2022-08-12T21:31:11.360Z,24.00
2022-08-12T21:33:31.994Z,24.00
2022-08-12T21:36:14.477Z,23.90
2022-08-12T21:38:51.171Z,23.90
2022-08-12T21:41:20.233Z,23.80
2022-08-12T21:43:50.323Z,23.80
2022-08-12T21:46:34.629Z,23.70
2022-08-12T21:49:05.177Z,23.70
2022-08-12T21:51:50.191Z,23.70
2022-08-12T21:54:23.049Z,23.60
2022-08-12T21:56:53.676Z,23.60
2022-08-12T21:59:22.017Z,23.50
2022-08-12T22:01:52.741Z,23.50
2022-08-12T22:04:38.348Z,23.50
2022-08-12T22:07:06.988Z,23.40
2022-08-12T22:09:42.622Z,23.40
2022-08-12T22:12:28.405Z,23.30
2022-08-12T22:14:55.369Z,23.30
2022-08-12T22:17:33.818Z,23.30
2022-08-12T22:20:21.890Z,23.30
2022-08-12T22:22:57.047Z,23.30
2022-08-12T22:25:28.583Z,23.30
2022-08-12T22:28:14.735Z,23.30
2022-08-12T22:31:01.275Z,23.20
2022-08-12T22:33:28.147Z,23.20
2022-08-12T22:35:59.872Z,23.20
2022-08-12T22:38:29.718Z,23.20
2022-08-12T22:41:01.889Z,23.10
2022-08-12T22:43:58.887Z,23.10
2022-08-12T22:46:52.530Z,23.10
2022-08-12T22:49:48.837Z,23.10
2022-08-12T22:52:14.326Z,23.10
2022-08-12T22:55:03.051Z,23.00
2022-08-12T22:57:49.151Z,22.90
2022-08-12T23:00:24.539Z,22.90
2022-08-12T23:03:00.891Z,22.80
2022-08-12T23:05:57.219Z,22.80
2022-08-12T23:08:22.065Z,22.70
2022-08-12T23:10:49.909Z,22.70
2022-08-12T23:13:43.972Z,22.60
2022-08-12T23:16:28.454Z,22.60
2022-08-12T23:19:10.588Z,22.60
2022-08-12T23:22:04.943Z,22.60
2022-08-12T23:24:53.678Z,22.60
2022-08-12T23:27:50.096Z,22.60
2022-08-12T23:30:25.088Z,22.60
2022-08-12T23:32:59.874Z,22.60
2022-08-12T23:35:45.930Z,22.60
2022-08-12T23:38:30.533Z,22.50
2022-08-12T23:41:03.942Z,22.50
2022-08-12T23:43:40.977Z,22.50
2022-08-12T23:46:19.468Z,22.50
2022-08-12T23:48:51.817Z,22.40
2022-08-12T23:51:26.684Z,22.40
2022-08-12T23:54:02.835Z,22.40
2022-08-12T23:56:33.575Z,22.40
2022-08-12T23:59:08.824Z,22.40
